sensor_id;sensor_type;location;lat;lon;timestamp;P1;durP1;ratioP1;P2;durP2;ratioP2
8044;SDS011;4065;48.754;9.982;2023-06-22T00:02:31;13.82;;;12.15;;
8044;SDS011;4065;48.754;9.982;2023-06-22T00:05:53;17.05;;;13.88;;
8044;SDS011;4065;48.754;9.982;2023-06-22T00:09:15;14.85;;;12.40;;
8044;SDS011;4065;48.754;9.982;2023-06-22T00:12:37;16.55;;;12.65;;
8044;SDS011;4065;48.754;9.982;2023-06-22T00:15:59;16.70;;;12.85;;
8044;SDS011;4065;48.754;9.982;2023-06-22T00:19:22;18.40;;;13.57;;
8044;SDS011;4065;48.754;9.982;2023-06-22T00:22:44;18.13;;;13.38;;
8044;SDS011;4065;48.754;9.982;2023-06-22T00:26:06;17.45;;;14.10;;
8044;SDS011;4065;48.754;9.982;2023-06-22T00:29:28;16.90;;;13.73;;
8044;SDS011;4065;48.754;9.982;2023-06-22T00:33:01;16.20;;;13.30;;
8044;SDS011;4065;48.754;9.982;2023-06-22T00:36:23;19.02;;;12.68;;
8044;SDS011;4065;48.754;9.982;2023-06-22T00:39:45;18.77;;;13.68;;
8044;SDS011;4065;48.754;9.982;2023-06-22T00:43:07;18.23;;;13.68;;
8044;SDS011;4065;48.754;9.982;2023-06-22T00:46:29;14.43;;;12.52;;
8044;SDS011;4065;48.754;9.982;2023-06-22T00:49:52;15.68;;;11.68;;
8044;SDS011;4065;48.754;9.982;2023-06-22T00:53:14;15.45;;;11.60;;
8044;SDS011;4065;48.754;9.982;2023-06-22T00:56:37;15.00;;;12.10;;
8044;SDS011;4065;48.754;9.982;2023-06-22T00:59:59;16.70;;;12.60;;
8044;SDS011;4065;48.754;9.982;2023-06-22T01:03:21;14.82;;;11.40;;
8044;SDS011;4065;48.754;9.982;2023-06-22T01:06:45;15.73;;;12.32;;
8044;SDS011;4065;48.754;9.982;2023-06-22T01:10:21;16.88;;;13.27;;
8044;SDS011;4065;48.754;9.982;2023-06-22T01:13:48;14.98;;;13.38;;
8044;SDS011;4065;48.754;9.982;2023-06-22T01:17:12;19.83;;;13.15;;
8044;SDS011;4065;48.754;9.982;2023-06-22T01:20:37;18.30;;;13.38;;
8044;SDS011;4065;48.754;9.982;2023-06-22T01:24:14;19.10;;;15.10;;
8044;SDS011;4065;48.754;9.982;2023-06-22T01:27:40;17.95;;;13.40;;
8044;SDS011;4065;48.754;9.982;2023-06-22T01:31:10;18.90;;;14.57;;
8044;SDS011;4065;48.754;9.982;2023-06-22T01:34:34;19.50;;;15.13;;
8044;SDS011;4065;48.754;9.982;2023-06-22T01:37:56;21.25;;;15.68;;
8044;SDS011;4065;48.754;9.982;2023-06-22T01:41:18;16.02;;;14.18;;
8044;SDS011;4065;48.754;9.982;2023-06-22T01:44:41;18.23;;;15.30;;
8044;SDS011;4065;48.754;9.982;2023-06-22T01:48:04;22.15;;;15.48;;
8044;SDS011;4065;48.754;9.982;2023-06-22T01:51:27;19.90;;;14.07;;
8044;SDS011;4065;48.754;9.982;2023-06-22T01:54:48;21.38;;;16.00;;
8044;SDS011;4065;48.754;9.982;2023-06-22T01:58:10;19.02;;;14.77;;
8044;SDS011;4065;48.754;9.982;2023-06-22T02:01:33;21.70;;;15.18;;
8044;SDS011;4065;48.754;9.982;2023-06-22T02:05:02;18.50;;;15.25;;
8044;SDS011;4065;48.754;9.982;2023-06-22T02:08:28;24.55;;;16.92;;
8044;SDS011;4065;48.754;9.982;2023-06-22T02:11:52;21.70;;;17.23;;
8044;SDS011;4065;48.754;9.982;2023-06-22T02:15:16;20.75;;;15.50;;
8044;SDS011;4065;48.754;9.982;2023-06-22T02:18:38;23.67;;;16.77;;
8044;SDS011;4065;48.754;9.982;2023-06-22T02:22:03;24.92;;;16.75;;
8044;SDS011;4065;48.754;9.982;2023-06-22T02:25:25;23.80;;;17.90;;
8044;SDS011;4065;48.754;9.982;2023-06-22T02:28:47;24.45;;;17.60;;
8044;SDS011;4065;48.754;9.982;2023-06-22T02:32:09;23.15;;;16.85;;
8044;SDS011;4065;48.754;9.982;2023-06-22T02:35:31;19.65;;;16.50;;
8044;SDS011;4065;48.754;9.982;2023-06-22T02:38:57;17.55;;;15.15;;
8044;SDS011;4065;48.754;9.982;2023-06-22T02:42:21;19.30;;;15.02;;
8044;SDS011;4065;48.754;9.982;2023-06-22T02:45:43;20.10;;;15.35;;
8044;SDS011;4065;48.754;9.982;2023-06-22T02:49:05;17.42;;;13.38;;
8044;SDS011;4065;48.754;9.982;2023-06-22T02:52:27;22.13;;;14.77;;
8044;SDS011;4065;48.754;9.982;2023-06-22T02:55:50;19.25;;;13.20;;
8044;SDS011;4065;48.754;9.982;2023-06-22T02:59:12;16.13;;;13.02;;
8044;SDS011;4065;48.754;9.982;2023-06-22T03:02:34;15.75;;;13.00;;
8044;SDS011;4065;48.754;9.982;2023-06-22T03:05:56;14.48;;;12.82;;
8044;SDS011;4065;48.754;9.982;2023-06-22T03:09:18;18.88;;;13.63;;
8044;SDS011;4065;48.754;9.982;2023-06-22T03:12:43;16.02;;;13.73;;
8044;SDS011;4065;48.754;9.982;2023-06-22T03:16:05;16.30;;;13.15;;
8044;SDS011;4065;48.754;9.982;2023-06-22T03:19:27;15.98;;;12.77;;
8044;SDS011;4065;48.754;9.982;2023-06-22T03:22:50;16.20;;;14.00;;
8044;SDS011;4065;48.754;9.982;2023-06-22T03:26:11;16.40;;;13.05;;
8044;SDS011;4065;48.754;9.982;2023-06-22T03:29:35;16.00;;;12.85;;
8044;SDS011;4065;48.754;9.982;2023-06-22T03:32:57;17.02;;;14.02;;
8044;SDS011;4065;48.754;9.982;2023-06-22T03:36:18;14.98;;;13.35;;
8044;SDS011;4065;48.754;9.982;2023-06-22T03:39:40;19.88;;;14.30;;
8044;SDS011;4065;48.754;9.982;2023-06-22T03:43:02;19.85;;;14.38;;
8044;SDS011;4065;48.754;9.982;2023-06-22T03:46:25;21.10;;;14.75;;
8044;SDS011;4065;48.754;9.982;2023-06-22T03:49:48;20.02;;;14.43;;
8044;SDS011;4065;48.754;9.982;2023-06-22T03:53:10;20.40;;;14.90;;
8044;SDS011;4065;48.754;9.982;2023-06-22T03:56:32;23.58;;;15.43;;
8044;SDS011;4065;48.754;9.982;2023-06-22T03:59:54;15.57;;;13.07;;
8044;SDS011;4065;48.754;9.982;2023-06-22T04:03:19;18.13;;;13.95;;
8044;SDS011;4065;48.754;9.982;2023-06-22T04:06:41;21.63;;;15.60;;
8044;SDS011;4065;48.754;9.982;2023-06-22T04:10:03;18.73;;;14.73;;
8044;SDS011;4065;48.754;9.982;2023-06-22T04:13:25;21.10;;;15.80;;
8044;SDS011;4065;48.754;9.982;2023-06-22T04:16:47;19.73;;;15.32;;
8044;SDS011;4065;48.754;9.982;2023-06-22T04:20:11;17.38;;;14.15;;
8044;SDS011;4065;48.754;9.982;2023-06-22T04:23:33;19.95;;;15.80;;
8044;SDS011;4065;48.754;9.982;2023-06-22T04:26:55;18.67;;;13.52;;
8044;SDS011;4065;48.754;9.982;2023-06-22T04:30:17;16.45;;;13.07;;
8044;SDS011;4065;48.754;9.982;2023-06-22T04:33:38;15.35;;;13.73;;
8044;SDS011;4065;48.754;9.982;2023-06-22T04:37:02;17.52;;;13.85;;
8044;SDS011;4065;48.754;9.982;2023-06-22T04:40:24;17.52;;;13.45;;
8044;SDS011;4065;48.754;9.982;2023-06-22T04:43:46;16.25;;;12.50;;
8044;SDS011;4065;48.754;9.982;2023-06-22T04:47:14;20.25;;;14.32;;
8044;SDS011;4065;48.754;9.982;2023-06-22T04:50:37;18.23;;;12.60;;
8044;SDS011;4065;48.754;9.982;2023-06-22T04:54:01;18.63;;;14.00;;
8044;SDS011;4065;48.754;9.982;2023-06-22T04:57:23;17.35;;;13.65;;
8044;SDS011;4065;48.754;9.982;2023-06-22T05:00:52;19.40;;;13.27;;
8044;SDS011;4065;48.754;9.982;2023-06-22T05:04:17;19.70;;;14.15;;
8044;SDS011;4065;48.754;9.982;2023-06-22T05:07:39;19.80;;;12.90;;
8044;SDS011;4065;48.754;9.982;2023-06-22T05:11:05;16.80;;;13.07;;
8044;SDS011;4065;48.754;9.982;2023-06-22T05:14:27;17.15;;;12.23;;
8044;SDS011;4065;48.754;9.982;2023-06-22T05:17:49;20.08;;;12.43;;
8044;SDS011;4065;48.754;9.982;2023-06-22T05:21:11;14.90;;;11.68;;
8044;SDS011;4065;48.754;9.982;2023-06-22T05:24:33;13.82;;;11.07;;
8044;SDS011;4065;48.754;9.982;2023-06-22T05:27:56;14.77;;;10.57;;
8044;SDS011;4065;48.754;9.982;2023-06-22T05:31:19;12.25;;;10.38;;
8044;SDS011;4065;48.754;9.982;2023-06-22T05:34:41;13.23;;;10.02;;
8044;SDS011;4065;48.754;9.982;2023-06-22T05:38:03;16.40;;;9.63;;
8044;SDS011;4065;48.754;9.982;2023-06-22T05:41:25;12.45;;;9.93;;
8044;SDS011;4065;48.754;9.982;2023-06-22T05:44:48;11.82;;;8.40;;
8044;SDS011;4065;48.754;9.982;2023-06-22T05:48:10;12.00;;;8.32;;
8044;SDS011;4065;48.754;9.982;2023-06-22T05:51:32;10.52;;;8.13;;
8044;SDS011;4065;48.754;9.982;2023-06-22T05:54:54;9.77;;;7.90;;
8044;SDS011;4065;48.754;9.982;2023-06-22T05:58:16;13.45;;;8.20;;
8044;SDS011;4065;48.754;9.982;2023-06-22T06:01:39;14.50;;;7.70;;
8044;SDS011;4065;48.754;9.982;2023-06-22T06:05:01;9.48;;;7.20;;
8044;SDS011;4065;48.754;9.982;2023-06-22T06:08:23;11.63;;;6.57;;
8044;SDS011;4065;48.754;9.982;2023-06-22T06:11:46;9.88;;;6.85;;
8044;SDS011;4065;48.754;9.982;2023-06-22T06:15:09;12.32;;;6.63;;
8044;SDS011;4065;48.754;9.982;2023-06-22T06:18:32;10.38;;;6.15;;
8044;SDS011;4065;48.754;9.982;2023-06-22T06:21:54;9.95;;;5.93;;
8044;SDS011;4065;48.754;9.982;2023-06-22T06:25:17;8.18;;;5.63;;
8044;SDS011;4065;48.754;9.982;2023-06-22T06:28:40;7.68;;;5.45;;
8044;SDS011;4065;48.754;9.982;2023-06-22T06:32:02;10.38;;;5.72;;
8044;SDS011;4065;48.754;9.982;2023-06-22T06:35:26;8.82;;;6.03;;
8044;SDS011;4065;48.754;9.982;2023-06-22T06:38:48;11.10;;;5.50;;
8044;SDS011;4065;48.754;9.982;2023-06-22T06:42:10;9.90;;;5.30;;
8044;SDS011;4065;48.754;9.982;2023-06-22T06:45:32;9.52;;;5.63;;
8044;SDS011;4065;48.754;9.982;2023-06-22T06:48:54;9.35;;;5.80;;
8044;SDS011;4065;48.754;9.982;2023-06-22T06:52:18;9.93;;;6.10;;
8044;SDS011;4065;48.754;9.982;2023-06-22T06:55:40;7.35;;;5.00;;
8044;SDS011;4065;48.754;9.982;2023-06-22T06:59:02;7.57;;;4.65;;
8044;SDS011;4065;48.754;9.982;2023-06-22T07:02:25;9.07;;;4.63;;
8044;SDS011;4065;48.754;9.982;2023-06-22T07:05:48;6.13;;;4.30;;
8044;SDS011;4065;48.754;9.982;2023-06-22T07:09:11;12.82;;;5.10;;
8044;SDS011;4065;48.754;9.982;2023-06-22T07:12:33;8.07;;;4.70;;
8044;SDS011;4065;48.754;9.982;2023-06-22T07:15:55;7.68;;;4.60;;
8044;SDS011;4065;48.754;9.982;2023-06-22T07:19:24;9.68;;;4.38;;
8044;SDS011;4065;48.754;9.982;2023-06-22T07:22:47;9.40;;;4.13;;
8044;SDS011;4065;48.754;9.982;2023-06-22T07:26:10;6.63;;;4.40;;
8044;SDS011;4065;48.754;9.982;2023-06-22T07:29:33;7.00;;;4.15;;
8044;SDS011;4065;48.754;9.982;2023-06-22T07:32:56;8.68;;;4.28;;
8044;SDS011;4065;48.754;9.982;2023-06-22T07:36:18;10.00;;;4.28;;
8044;SDS011;4065;48.754;9.982;2023-06-22T07:39:40;7.93;;;4.40;;
8044;SDS011;4065;48.754;9.982;2023-06-22T07:43:04;10.32;;;5.03;;
8044;SDS011;4065;48.754;9.982;2023-06-22T07:46:26;10.00;;;5.18;;
8044;SDS011;4065;48.754;9.982;2023-06-22T07:49:50;10.73;;;5.10;;
8044;SDS011;4065;48.754;9.982;2023-06-22T07:53:12;9.95;;;4.75;;
8044;SDS011;4065;48.754;9.982;2023-06-22T07:56:34;8.80;;;4.78;;
8044;SDS011;4065;48.754;9.982;2023-06-22T07:59:58;10.27;;;5.53;;
8044;SDS011;4065;48.754;9.982;2023-06-22T08:03:20;11.25;;;5.05;;
8044;SDS011;4065;48.754;9.982;2023-06-22T08:06:42;13.60;;;6.00;;
8044;SDS011;4065;48.754;9.982;2023-06-22T08:10:05;13.10;;;5.82;;
8044;SDS011;4065;48.754;9.982;2023-06-22T08:13:28;12.13;;;6.28;;
8044;SDS011;4065;48.754;9.982;2023-06-22T08:16:52;12.95;;;6.20;;
8044;SDS011;4065;48.754;9.982;2023-06-22T08:20:14;13.95;;;6.80;;
8044;SDS011;4065;48.754;9.982;2023-06-22T08:23:36;13.50;;;6.32;;
8044;SDS011;4065;48.754;9.982;2023-06-22T08:26:58;19.35;;;7.80;;
8044;SDS011;4065;48.754;9.982;2023-06-22T08:30:20;11.40;;;6.25;;
8044;SDS011;4065;48.754;9.982;2023-06-22T08:33:43;15.15;;;6.53;;
8044;SDS011;4065;48.754;9.982;2023-06-22T08:37:06;21.27;;;7.30;;
8044;SDS011;4065;48.754;9.982;2023-06-22T08:40:28;17.30;;;6.63;;
8044;SDS011;4065;48.754;9.982;2023-06-22T08:43:50;15.20;;;7.25;;
8044;SDS011;4065;48.754;9.982;2023-06-22T08:47:12;16.67;;;7.35;;
8044;SDS011;4065;48.754;9.982;2023-06-22T08:50:35;12.40;;;7.13;;
8044;SDS011;4065;48.754;9.982;2023-06-22T08:53:57;10.27;;;5.93;;
8044;SDS011;4065;48.754;9.982;2023-06-22T08:57:20;15.25;;;7.05;;
8044;SDS011;4065;48.754;9.982;2023-06-22T09:00:42;10.75;;;6.75;;
8044;SDS011;4065;48.754;9.982;2023-06-22T09:04:04;11.90;;;6.63;;
8044;SDS011;4065;48.754;9.982;2023-06-22T09:07:29;12.43;;;6.80;;
8044;SDS011;4065;48.754;9.982;2023-06-22T09:10:51;13.82;;;7.00;;
8044;SDS011;4065;48.754;9.982;2023-06-22T09:14:13;19.73;;;6.85;;
8044;SDS011;4065;48.754;9.982;2023-06-22T09:17:35;18.73;;;7.50;;
8044;SDS011;4065;48.754;9.982;2023-06-22T09:20:57;11.75;;;6.45;;
8044;SDS011;4065;48.754;9.982;2023-06-22T09:24:20;11.50;;;7.15;;
8044;SDS011;4065;48.754;9.982;2023-06-22T09:27:42;15.00;;;7.43;;
8044;SDS011;4065;48.754;9.982;2023-06-22T09:31:04;11.52;;;6.90;;
8044;SDS011;4065;48.754;9.982;2023-06-22T09:34:27;12.52;;;7.25;;
8044;SDS011;4065;48.754;9.982;2023-06-22T09:37:49;12.13;;;7.13;;
8044;SDS011;4065;48.754;9.982;2023-06-22T09:41:12;11.07;;;6.00;;
8044;SDS011;4065;48.754;9.982;2023-06-22T09:44:34;9.52;;;6.50;;
8044;SDS011;4065;48.754;9.982;2023-06-22T09:47:56;12.60;;;6.53;;
8044;SDS011;4065;48.754;9.982;2023-06-22T09:51:18;14.07;;;6.30;;
8044;SDS011;4065;48.754;9.982;2023-06-22T09:54:42;12.30;;;6.35;;
8044;SDS011;4065;48.754;9.982;2023-06-22T09:58:05;17.58;;;7.43;;
8044;SDS011;4065;48.754;9.982;2023-06-22T10:01:27;13.63;;;7.75;;
8044;SDS011;4065;48.754;9.982;2023-06-22T10:04:49;11.55;;;6.63;;
8044;SDS011;4065;48.754;9.982;2023-06-22T10:08:12;13.52;;;7.05;;
8044;SDS011;4065;48.754;9.982;2023-06-22T10:11:33;13.90;;;7.60;;
8044;SDS011;4065;48.754;9.982;2023-06-22T10:14:57;13.25;;;7.68;;
8044;SDS011;4065;48.754;9.982;2023-06-22T10:18:19;15.70;;;7.88;;
8044;SDS011;4065;48.754;9.982;2023-06-22T10:21:41;15.88;;;8.25;;
8044;SDS011;4065;48.754;9.982;2023-06-22T10:25:03;15.75;;;7.70;;
8044;SDS011;4065;48.754;9.982;2023-06-22T10:28:26;12.43;;;7.03;;
8044;SDS011;4065;48.754;9.982;2023-06-22T10:31:49;13.35;;;7.45;;
8044;SDS011;4065;48.754;9.982;2023-06-22T10:35:11;16.13;;;7.40;;
8044;SDS011;4065;48.754;9.982;2023-06-22T10:38:36;11.95;;;7.70;;
8044;SDS011;4065;48.754;9.982;2023-06-22T10:42:01;14.07;;;7.70;;
8044;SDS011;4065;48.754;9.982;2023-06-22T10:45:23;17.25;;;7.82;;
8044;SDS011;4065;48.754;9.982;2023-06-22T10:48:47;14.15;;;7.63;;
8044;SDS011;4065;48.754;9.982;2023-06-22T10:52:08;16.08;;;7.65;;
8044;SDS011;4065;48.754;9.982;2023-06-22T10:55:30;12.52;;;7.13;;
8044;SDS011;4065;48.754;9.982;2023-06-22T10:58:52;19.85;;;7.70;;
8044;SDS011;4065;48.754;9.982;2023-06-22T11:02:14;14.65;;;6.80;;
8044;SDS011;4065;48.754;9.982;2023-06-22T11:05:38;12.05;;;7.03;;
8044;SDS011;4065;48.754;9.982;2023-06-22T11:09:00;12.25;;;6.78;;
8044;SDS011;4065;48.754;9.982;2023-06-22T11:12:24;13.68;;;7.20;;
8044;SDS011;4065;48.754;9.982;2023-06-22T11:15:46;16.88;;;6.50;;
8044;SDS011;4065;48.754;9.982;2023-06-22T11:19:08;18.17;;;6.82;;
8044;SDS011;4065;48.754;9.982;2023-06-22T11:22:34;11.55;;;6.32;;
8044;SDS011;4065;48.754;9.982;2023-06-22T11:25:56;15.57;;;7.10;;
8044;SDS011;4065;48.754;9.982;2023-06-22T11:29:18;15.23;;;6.43;;
8044;SDS011;4065;48.754;9.982;2023-06-22T11:32:40;17.13;;;6.85;;
8044;SDS011;4065;48.754;9.982;2023-06-22T11:36:02;17.15;;;7.15;;
8044;SDS011;4065;48.754;9.982;2023-06-22T11:39:25;12.70;;;6.15;;
8044;SDS011;4065;48.754;9.982;2023-06-22T11:42:47;14.27;;;6.47;;
8044;SDS011;4065;48.754;9.982;2023-06-22T11:46:09;13.48;;;6.40;;
8044;SDS011;4065;48.754;9.982;2023-06-22T11:49:31;14.80;;;6.43;;
8044;SDS011;4065;48.754;9.982;2023-06-22T11:52:54;14.35;;;6.43;;
8044;SDS011;4065;48.754;9.982;2023-06-22T11:56:17;16.42;;;6.90;;
8044;SDS011;4065;48.754;9.982;2023-06-22T11:59:39;13.63;;;6.97;;
8044;SDS011;4065;48.754;9.982;2023-06-22T12:03:01;13.80;;;6.85;;
8044;SDS011;4065;48.754;9.982;2023-06-22T12:06:23;15.75;;;6.53;;
8044;SDS011;4065;48.754;9.982;2023-06-22T12:09:45;14.93;;;7.35;;
8044;SDS011;4065;48.754;9.982;2023-06-22T12:13:08;15.32;;;6.75;;
8044;SDS011;4065;48.754;9.982;2023-06-22T12:16:30;16.08;;;7.25;;
8044;SDS011;4065;48.754;9.982;2023-06-22T12:19:52;10.70;;;5.60;;
8044;SDS011;4065;48.754;9.982;2023-06-22T12:23:14;9.52;;;6.63;;
8044;SDS011;4065;48.754;9.982;2023-06-22T12:26:36;15.18;;;7.35;;
8044;SDS011;4065;48.754;9.982;2023-06-22T12:30:00;13.18;;;6.82;;
8044;SDS011;4065;48.754;9.982;2023-06-22T12:33:22;11.48;;;6.20;;
8044;SDS011;4065;48.754;9.982;2023-06-22T12:36:44;16.02;;;6.88;;
8044;SDS011;4065;48.754;9.982;2023-06-22T12:40:08;15.15;;;7.10;;
8044;SDS011;4065;48.754;9.982;2023-06-22T12:43:30;15.82;;;7.25;;
8044;SDS011;4065;48.754;9.982;2023-06-22T12:46:53;13.35;;;6.90;;
8044;SDS011;4065;48.754;9.982;2023-06-22T12:50:15;13.20;;;7.38;;
8044;SDS011;4065;48.754;9.982;2023-06-22T12:53:37;10.52;;;6.93;;
8044;SDS011;4065;48.754;9.982;2023-06-22T12:56:59;12.43;;;6.88;;
8044;SDS011;4065;48.754;9.982;2023-06-22T13:00:21;13.52;;;7.60;;
8044;SDS011;4065;48.754;9.982;2023-06-22T13:03:44;15.30;;;7.13;;
8044;SDS011;4065;48.754;9.982;2023-06-22T13:07:06;16.25;;;7.60;;
8044;SDS011;4065;48.754;9.982;2023-06-22T13:10:28;16.30;;;7.00;;
8044;SDS011;4065;48.754;9.982;2023-06-22T13:13:50;11.57;;;6.70;;
8044;SDS011;4065;48.754;9.982;2023-06-22T13:17:12;13.05;;;6.65;;
8044;SDS011;4065;48.754;9.982;2023-06-22T13:20:35;11.43;;;6.97;;
8044;SDS011;4065;48.754;9.982;2023-06-22T13:23:57;19.25;;;7.80;;
8044;SDS011;4065;48.754;9.982;2023-06-22T13:27:19;11.82;;;6.78;;
8044;SDS011;4065;48.754;9.982;2023-06-22T13:30:41;16.85;;;7.25;;
8044;SDS011;4065;48.754;9.982;2023-06-22T13:34:03;17.00;;;7.22;;
8044;SDS011;4065;48.754;9.982;2023-06-22T13:37:26;15.93;;;7.03;;
8044;SDS011;4065;48.754;9.982;2023-06-22T13:40:48;14.02;;;6.65;;
8044;SDS011;4065;48.754;9.982;2023-06-22T13:44:10;13.95;;;7.07;;
8044;SDS011;4065;48.754;9.982;2023-06-22T13:47:32;13.02;;;7.13;;
8044;SDS011;4065;48.754;9.982;2023-06-22T13:50:54;13.13;;;6.57;;
8044;SDS011;4065;48.754;9.982;2023-06-22T13:54:17;12.35;;;6.72;;
8044;SDS011;4065;48.754;9.982;2023-06-22T13:57:39;14.00;;;7.38;;
8044;SDS011;4065;48.754;9.982;2023-06-22T14:01:01;14.45;;;7.60;;
8044;SDS011;4065;48.754;9.982;2023-06-22T14:04:23;17.45;;;7.45;;
8044;SDS011;4065;48.754;9.982;2023-06-22T14:07:45;15.30;;;7.60;;
8044;SDS011;4065;48.754;9.982;2023-06-22T14:11:09;12.23;;;6.88;;
8044;SDS011;4065;48.754;9.982;2023-06-22T14:14:31;18.27;;;7.45;;
8044;SDS011;4065;48.754;9.982;2023-06-22T14:17:53;13.05;;;5.57;;
8044;SDS011;4065;48.754;9.982;2023-06-22T14:21:15;13.52;;;6.05;;
8044;SDS011;4065;48.754;9.982;2023-06-22T14:24:37;12.68;;;5.72;;
8044;SDS011;4065;48.754;9.982;2023-06-22T14:28:00;9.35;;;5.55;;
8044;SDS011;4065;48.754;9.982;2023-06-22T14:31:22;16.10;;;6.40;;
8044;SDS011;4065;48.754;9.982;2023-06-22T14:34:44;15.85;;;6.53;;
8044;SDS011;4065;48.754;9.982;2023-06-22T14:38:06;15.13;;;6.22;;
8044;SDS011;4065;48.754;9.982;2023-06-22T14:41:28;16.67;;;6.32;;
8044;SDS011;4065;48.754;9.982;2023-06-22T14:44:52;16.77;;;5.90;;
8044;SDS011;4065;48.754;9.982;2023-06-22T14:48:14;15.63;;;5.88;;
8044;SDS011;4065;48.754;9.982;2023-06-22T14:51:35;15.18;;;6.10;;
8044;SDS011;4065;48.754;9.982;2023-06-22T14:54:57;10.90;;;5.43;;
8044;SDS011;4065;48.754;9.982;2023-06-22T14:58:19;11.57;;;5.28;;
8044;SDS011;4065;48.754;9.982;2023-06-22T15:01:42;11.75;;;5.32;;
8044;SDS011;4065;48.754;9.982;2023-06-22T15:05:04;9.80;;;4.88;;
8044;SDS011;4065;48.754;9.982;2023-06-22T15:08:26;14.85;;;5.38;;
8044;SDS011;4065;48.754;9.982;2023-06-22T15:11:48;15.27;;;5.80;;
8044;SDS011;4065;48.754;9.982;2023-06-22T15:15:10;14.63;;;5.20;;
8044;SDS011;4065;48.754;9.982;2023-06-22T15:18:34;15.27;;;5.00;;
8044;SDS011;4065;48.754;9.982;2023-06-22T15:21:56;12.30;;;4.63;;
8044;SDS011;4065;48.754;9.982;2023-06-22T15:25:18;13.18;;;4.78;;
8044;SDS011;4065;48.754;9.982;2023-06-22T15:28:40;18.98;;;5.57;;
8044;SDS011;4065;48.754;9.982;2023-06-22T15:32:02;13.70;;;5.30;;
8044;SDS011;4065;48.754;9.982;2023-06-22T15:35:26;12.80;;;5.13;;
8044;SDS011;4065;48.754;9.982;2023-06-22T15:38:47;10.27;;;5.22;;
8044;SDS011;4065;48.754;9.982;2023-06-22T15:42:09;11.70;;;5.10;;
8044;SDS011;4065;48.754;9.982;2023-06-22T15:45:31;15.68;;;6.22;;
8044;SDS011;4065;48.754;9.982;2023-06-22T15:48:53;13.63;;;5.45;;
8044;SDS011;4065;48.754;9.982;2023-06-22T15:52:17;13.63;;;5.07;;
8044;SDS011;4065;48.754;9.982;2023-06-22T15:55:39;11.30;;;5.38;;
8044;SDS011;4065;48.754;9.982;2023-06-22T15:59:01;13.85;;;5.13;;
8044;SDS011;4065;48.754;9.982;2023-06-22T16:02:23;15.52;;;5.60;;
8044;SDS011;4065;48.754;9.982;2023-06-22T16:05:47;14.52;;;6.00;;
8044;SDS011;4065;48.754;9.982;2023-06-22T16:09:10;16.30;;;5.30;;
8044;SDS011;4065;48.754;9.982;2023-06-22T16:12:34;12.93;;;4.90;;
8044;SDS011;4065;48.754;9.982;2023-06-22T16:15:57;12.80;;;5.60;;
8044;SDS011;4065;48.754;9.982;2023-06-22T16:19:18;17.15;;;5.85;;
8044;SDS011;4065;48.754;9.982;2023-06-22T16:22:40;14.10;;;5.68;;
8044;SDS011;4065;48.754;9.982;2023-06-22T16:26:03;14.82;;;5.53;;
8044;SDS011;4065;48.754;9.982;2023-06-22T16:29:25;11.30;;;5.82;;
8044;SDS011;4065;48.754;9.982;2023-06-22T16:32:51;13.80;;;5.70;;
8044;SDS011;4065;48.754;9.982;2023-06-22T16:36:14;12.18;;;5.35;;
8044;SDS011;4065;48.754;9.982;2023-06-22T16:39:36;14.32;;;5.68;;
8044;SDS011;4065;48.754;9.982;2023-06-22T16:42:59;19.48;;;6.07;;
8044;SDS011;4065;48.754;9.982;2023-06-22T16:46:21;16.65;;;5.95;;
8044;SDS011;4065;48.754;9.982;2023-06-22T16:49:43;15.23;;;6.22;;
8044;SDS011;4065;48.754;9.982;2023-06-22T16:53:05;24.45;;;8.10;;
8044;SDS011;4065;48.754;9.982;2023-06-22T16:56:27;23.42;;;7.18;;
8044;SDS011;4065;48.754;9.982;2023-06-22T16:59:51;18.60;;;7.68;;
8044;SDS011;4065;48.754;9.982;2023-06-22T17:03:15;22.20;;;9.07;;
8044;SDS011;4065;48.754;9.982;2023-06-22T17:06:45;18.20;;;8.45;;
8044;SDS011;4065;48.754;9.982;2023-06-22T17:10:15;17.25;;;7.97;;
8044;SDS011;4065;48.754;9.982;2023-06-22T17:13:38;19.08;;;8.73;;
8044;SDS011;4065;48.754;9.982;2023-06-22T17:17:01;18.55;;;7.85;;
8044;SDS011;4065;48.754;9.982;2023-06-22T17:20:24;18.23;;;7.65;;
8044;SDS011;4065;48.754;9.982;2023-06-22T17:23:49;16.58;;;7.80;;
8044;SDS011;4065;48.754;9.982;2023-06-22T17:27:11;15.55;;;7.05;;
8044;SDS011;4065;48.754;9.982;2023-06-22T17:30:33;19.05;;;7.88;;
8044;SDS011;4065;48.754;9.982;2023-06-22T17:33:56;18.80;;;7.93;;
8044;SDS011;4065;48.754;9.982;2023-06-22T17:37:21;13.48;;;7.75;;
8044;SDS011;4065;48.754;9.982;2023-06-22T17:40:43;23.38;;;8.77;;
8044;SDS011;4065;48.754;9.982;2023-06-22T17:44:05;21.15;;;8.40;;
8044;SDS011;4065;48.754;9.982;2023-06-22T17:47:28;18.27;;;9.32;;
8044;SDS011;4065;48.754;9.982;2023-06-22T17:50:51;23.95;;;8.45;;
8044;SDS011;4065;48.754;9.982;2023-06-22T17:54:13;18.13;;;8.35;;
8044;SDS011;4065;48.754;9.982;2023-06-22T17:57:35;15.70;;;8.38;;
8044;SDS011;4065;48.754;9.982;2023-06-22T18:00:58;14.85;;;8.30;;
8044;SDS011;4065;48.754;9.982;2023-06-22T18:04:20;12.50;;;6.13;;
8044;SDS011;4065;48.754;9.982;2023-06-22T18:07:44;13.15;;;6.00;;
8044;SDS011;4065;48.754;9.982;2023-06-22T18:11:06;13.05;;;5.82;;
8044;SDS011;4065;48.754;9.982;2023-06-22T18:14:29;14.98;;;5.85;;
8044;SDS011;4065;48.754;9.982;2023-06-22T18:17:51;11.73;;;5.40;;
8044;SDS011;4065;48.754;9.982;2023-06-22T18:21:13;11.40;;;5.05;;
8044;SDS011;4065;48.754;9.982;2023-06-22T18:24:37;15.35;;;5.40;;
8044;SDS011;4065;48.754;9.982;2023-06-22T18:27:59;15.25;;;5.07;;
8044;SDS011;4065;48.754;9.982;2023-06-22T18:31:22;10.15;;;4.63;;
8044;SDS011;4065;48.754;9.982;2023-06-22T18:34:44;10.80;;;4.97;;
8044;SDS011;4065;48.754;9.982;2023-06-22T18:38:06;11.90;;;4.80;;
8044;SDS011;4065;48.754;9.982;2023-06-22T18:41:34;12.77;;;5.00;;
8044;SDS011;4065;48.754;9.982;2023-06-22T18:44:56;12.30;;;4.28;;
8044;SDS011;4065;48.754;9.982;2023-06-22T18:48:22;8.43;;;4.43;;
8044;SDS011;4065;48.754;9.982;2023-06-22T18:51:51;12.95;;;4.70;;
8044;SDS011;4065;48.754;9.982;2023-06-22T18:55:14;14.90;;;5.35;;
8044;SDS011;4065;48.754;9.982;2023-06-22T18:58:37;17.73;;;6.38;;
8044;SDS011;4065;48.754;9.982;2023-06-22T19:01:59;12.95;;;5.80;;
8044;SDS011;4065;48.754;9.982;2023-06-22T19:05:36;14.10;;;6.10;;
8044;SDS011;4065;48.754;9.982;2023-06-22T19:09:14;19.27;;;7.13;;
8044;SDS011;4065;48.754;9.982;2023-06-22T19:12:39;15.98;;;5.70;;
8044;SDS011;4065;48.754;9.982;2023-06-22T19:16:03;16.23;;;6.15;;
8044;SDS011;4065;48.754;9.982;2023-06-22T19:19:27;12.63;;;5.45;;
8044;SDS011;4065;48.754;9.982;2023-06-22T19:22:53;12.35;;;5.63;;
8044;SDS011;4065;48.754;9.982;2023-06-22T19:26:17;15.13;;;6.18;;
8044;SDS011;4065;48.754;9.982;2023-06-22T19:29:41;12.35;;;5.82;;
8044;SDS011;4065;48.754;9.982;2023-06-22T19:33:05;9.00;;;5.28;;
8044;SDS011;4065;48.754;9.982;2023-06-22T19:36:30;12.20;;;5.63;;
8044;SDS011;4065;48.754;9.982;2023-06-22T19:39:52;12.80;;;5.90;;
8044;SDS011;4065;48.754;9.982;2023-06-22T19:43:14;15.02;;;5.72;;
8044;SDS011;4065;48.754;9.982;2023-06-22T19:46:36;11.98;;;5.53;;
8044;SDS011;4065;48.754;9.982;2023-06-22T19:50:00;13.63;;;5.07;;
8044;SDS011;4065;48.754;9.982;2023-06-22T19:53:22;13.80;;;6.10;;
8044;SDS011;4065;48.754;9.982;2023-06-22T19:56:44;14.45;;;6.53;;
8044;SDS011;4065;48.754;9.982;2023-06-22T20:00:07;14.10;;;5.88;;
8044;SDS011;4065;48.754;9.982;2023-06-22T20:03:36;16.15;;;6.15;;
8044;SDS011;4065;48.754;9.982;2023-06-22T20:07:01;13.05;;;6.00;;
8044;SDS011;4065;48.754;9.982;2023-06-22T20:10:23;13.20;;;5.97;;
8044;SDS011;4065;48.754;9.982;2023-06-22T20:13:46;8.60;;;5.60;;
8044;SDS011;4065;48.754;9.982;2023-06-22T20:17:09;10.00;;;5.57;;
8044;SDS011;4065;48.754;9.982;2023-06-22T20:20:36;10.38;;;5.82;;
8044;SDS011;4065;48.754;9.982;2023-06-22T20:24:03;10.32;;;5.75;;
8044;SDS011;4065;48.754;9.982;2023-06-22T20:27:25;13.52;;;6.43;;
8044;SDS011;4065;48.754;9.982;2023-06-22T20:31:00;11.20;;;5.85;;
8044;SDS011;4065;48.754;9.982;2023-06-22T20:34:22;13.18;;;6.18;;
8044;SDS011;4065;48.754;9.982;2023-06-22T20:37:44;13.98;;;5.68;;